Time;durP1;ratioP1;P1;durP2;ratioP2;P2;SDS_P1;SDS_P2;PMS_P1;PMS_P2;Temp;Humidity;BMP_temperature;BMP_pressure;BME280_temperature;BME280_humidity;BME280_pressure;Samples;Min_cycle;Max_cycle;Signal;HPM_P1;HPM_P2
2023/08/27 00:02:12;;;;;;;19.17;11.85;;;;;;;;;;5071504;28;20021;-65
2023/08/27 00:04:38;;;;;;;24.27;16.60;;;;;;;;;;5070725;28;20191;-65
2023/08/27 00:07:04;;;;;;;18.65;11.60;;;;;;;;;;5071394;28;20024;-63
2023/08/27 00:09:30;;;;;;;16.40;9.68;;;;;;;;;;5071209;28;20338;-65
2023/08/27 00:11:56;;;;;;;17.20;9.70;;;;;;;;;;5053310;28;20032;-65
2023/08/27 00:14:22;;;;;;;16.75;9.30;;;;;;;;;;5070893;28;20035;-65
2023/08/27 00:16:48;;;;;;;17.20;9.32;;;;;;;;;;5071160;28;20161;-65
2023/08/27 00:19:14;;;;;;;18.08;9.10;;;;;;;;;;5071081;28;20028;-62
2023/08/27 00:21:41;;;;;;;16.63;9.18;;;;;;;;;;5070839;28;20477;-65
2023/08/27 00:24:07;;;;;;;15.70;8.38;;;;;;;;;;5070808;28;20020;-66
2023/08/27 00:26:33;;;;;;;16.95;9.02;;;;;;;;;;5070983;28;20097;-65
2023/08/27 00:29:00;;;;;;;15.40;8.40;;;;;;;;;;5070812;28;20028;-63
2023/08/27 00:31:26;;;;;;;15.10;8.35;;;;;;;;;;5070897;28;20024;-65
2023/08/27 00:33:52;;;;;;;15.30;8.30;;;;;;;;;;5052797;28;20115;-63
2023/08/27 00:36:18;;;;;;;15.27;8.77;;;;;;;;;;5070855;28;20576;-64
2023/08/27 00:38:44;;;;;;;16.23;8.65;;;;;;;;;;5070660;28;20126;-63
2023/08/27 00:41:10;;;;;;;15.43;8.18;;;;;;;;;;5052717;28;20086;-64
2023/08/27 00:43:36;;;;;;;15.05;8.00;;;;;;;;;;5070784;28;20076;-65
2023/08/27 00:46:03;;;;;;;15.23;8.50;;;;;;;;;;5070496;28;20028;-64
2023/08/27 00:48:29;;;;;;;17.92;8.10;;;;;;;;;;5070745;28;20098;-66
2023/08/27 00:50:55;;;;;;;15.50;8.00;;;;;;;;;;5052401;28;20131;-65
2023/08/27 00:53:21;;;;;;;15.30;7.82;;;;;;;;;;5070626;28;20077;-65
2023/08/27 00:55:47;;;;;;;15.63;8.32;;;;;;;;;;5070123;28;20346;-66
2023/08/27 00:58:13;;;;;;;14.95;7.90;;;;;;;;;;5052622;28;20181;-65
2023/08/27 01:00:40;;;;;;;15.27;8.18;;;;;;;;;;5070419;28;20020;-66
2023/08/27 01:03:06;;;;;;;15.00;8.35;;;;;;;;;;5069874;28;20053;-66
2023/08/27 01:05:32;;;;;;;14.98;8.38;;;;;;;;;;5069914;28;20032;-66
2023/08/27 01:08:09;;;;;;;16.58;8.93;;;;;;;;;;5052771;28;20032;-66
2023/08/27 01:10:36;;;;;;;14.88;8.23;;;;;;;;;;5070421;28;20464;-66
2023/08/27 01:13:06;;;;;;;16.30;8.77;;;;;;;;;;5070175;28;20445;-65
2023/08/27 01:15:33;;;;;;;15.73;8.55;;;;;;;;;;5070092;28;20028;-65
2023/08/27 01:18:00;;;;;;;16.13;8.30;;;;;;;;;;5070354;28;20017;-65
2023/08/27 01:20:27;;;;;;;15.52;8.80;;;;;;;;;;5052237;28;20020;-65
2023/08/27 01:22:53;;;;;;;16.27;8.70;;;;;;;;;;5070194;28;20048;-65
2023/08/27 01:25:21;;;;;;;17.08;8.63;;;;;;;;;;5069977;28;20508;-65
2023/08/27 01:27:56;;;;;;;15.32;8.77;;;;;;;;;;5052262;28;20055;-65
2023/08/27 01:30:25;;;;;;;15.52;8.95;;;;;;;;;;5051979;28;20082;-66
2023/08/27 01:32:53;;;;;;;16.45;9.02;;;;;;;;;;5070133;28;20032;-65
2023/08/27 01:35:19;;;;;;;16.00;9.13;;;;;;;;;;5051755;28;20024;-65
2023/08/27 01:37:46;;;;;;;15.75;9.75;;;;;;;;;;5070146;28;20029;-66
2023/08/27 01:40:12;;;;;;;15.60;9.25;;;;;;;;;;5051884;28;20115;-65
2023/08/27 01:42:38;;;;;;;16.33;9.55;;;;;;;;;;5070076;28;20198;-66
2023/08/27 01:45:05;;;;;;;16.55;9.50;;;;;;;;;;5069646;28;20112;-65
2023/08/27 01:47:31;;;;;;;16.17;9.10;;;;;;;;;;5069929;28;20025;-65
2023/08/27 01:49:57;;;;;;;15.80;9.27;;;;;;;;;;5070160;28;20040;-65
2023/08/27 01:52:23;;;;;;;16.73;9.52;;;;;;;;;;5052071;28;20060;-64
2023/08/27 01:54:49;;;;;;;19.13;10.30;;;;;;;;;;5069745;28;20112;-65
2023/08/27 01:57:15;;;;;;;16.77;9.20;;;;;;;;;;5069891;28;20089;-65
2023/08/27 01:59:41;;;;;;;16.23;9.90;;;;;;;;;;5069964;28;20361;-65
2023/08/27 02:02:07;;;;;;;17.25;9.98;;;;;;;;;;5069854;28;20056;-65
2023/08/27 02:04:33;;;;;;;17.23;9.68;;;;;;;;;;5069326;28;20032;-64
2023/08/27 02:06:59;;;;;;;16.50;10.35;;;;;;;;;;5051755;28;20064;-65
2023/08/27 02:09:25;;;;;;;18.05;10.13;;;;;;;;;;5051745;28;20043;-65
2023/08/27 02:11:51;;;;;;;17.70;10.35;;;;;;;;;;5069741;28;20520;-65
2023/08/27 02:14:17;;;;;;;16.48;10.13;;;;;;;;;;5070419;28;20033;-64
2023/08/27 02:16:43;;;;;;;17.70;10.10;;;;;;;;;;5055575;28;20076;-65
2023/08/27 02:19:09;;;;;;;17.70;10.57;;;;;;;;;;5055261;28;20024;-65
2023/08/27 02:21:35;;;;;;;17.52;10.40;;;;;;;;;;5055433;28;20085;-65
2023/08/27 02:24:01;;;;;;;16.52;10.77;;;;;;;;;;5055244;28;20115;-65
2023/08/27 02:26:27;;;;;;;18.20;10.48;;;;;;;;;;5055522;28;20028;-64
2023/08/27 02:28:54;;;;;;;17.83;10.27;;;;;;;;;;5074014;28;20157;-65
2023/08/27 02:31:20;;;;;;;18.30;10.93;;;;;;;;;;5073885;28;20021;-65
2023/08/27 02:33:46;;;;;;;17.63;10.88;;;;;;;;;;5074054;28;20033;-65
2023/08/27 02:36:13;;;;;;;17.98;10.98;;;;;;;;;;5057738;28;20028;-65
2023/08/27 02:38:38;;;;;;;17.50;11.13;;;;;;;;;;5075378;28;20021;-64
2023/08/27 02:41:05;;;;;;;17.52;10.82;;;;;;;;;;5055210;28;20024;-65
2023/08/27 02:43:31;;;;;;;17.65;11.05;;;;;;;;;;5073006;28;20042;-65
2023/08/27 02:45:58;;;;;;;18.15;10.90;;;;;;;;;;5054840;28;20487;-65
2023/08/27 02:48:24;;;;;;;17.83;10.45;;;;;;;;;;5073013;28;20070;-65
2023/08/27 02:50:50;;;;;;;17.73;11.00;;;;;;;;;;5073105;28;20426;-65
2023/08/27 02:53:16;;;;;;;18.67;10.90;;;;;;;;;;5073205;28;20481;-65
2023/08/27 02:55:42;;;;;;;17.70;11.60;;;;;;;;;;5072659;28;20407;-65
2023/08/27 02:58:08;;;;;;;18.58;11.45;;;;;;;;;;5072922;28;20017;-65
2023/08/27 03:00:34;;;;;;;17.90;11.52;;;;;;;;;;5072459;28;20028;-65
2023/08/27 03:03:00;;;;;;;17.65;11.38;;;;;;;;;;5054555;28;20024;-65
2023/08/27 03:05:26;;;;;;;18.85;11.18;;;;;;;;;;5071868;28;20035;-65
2023/08/27 03:07:52;;;;;;;19.88;12.13;;;;;;;;;;5054354;28;20029;-66
2023/08/27 03:10:18;;;;;;;18.92;11.20;;;;;;;;;;5072441;28;20111;-65
2023/08/27 03:12:44;;;;;;;18.42;11.68;;;;;;;;;;5054402;28;20032;-65
2023/08/27 03:15:10;;;;;;;19.17;11.95;;;;;;;;;;5072071;28;20361;-65
2023/08/27 03:17:36;;;;;;;17.95;11.23;;;;;;;;;;5072410;28;20052;-65
2023/08/27 03:20:02;;;;;;;20.63;11.60;;;;;;;;;;5054273;28;20109;-64
2023/08/27 03:22:29;;;;;;;18.05;11.48;;;;;;;;;;5072358;28;20013;-65
2023/08/27 03:24:55;;;;;;;22.77;12.07;;;;;;;;;;5072084;28;20468;-63
2023/08/27 03:27:21;;;;;;;18.05;11.38;;;;;;;;;;5071844;28;20024;-64
2023/08/27 03:29:47;;;;;;;21.77;11.80;;;;;;;;;;5072236;28;20035;-65
2023/08/27 03:32:15;;;;;;;17.90;12.05;;;;;;;;;;5072061;28;20034;-66
2023/08/27 03:34:40;;;;;;;21.83;13.63;;;;;;;;;;5071630;28;20021;-65
2023/08/27 03:37:06;;;;;;;22.33;12.30;;;;;;;;;;5072154;28;20550;-64
2023/08/27 03:39:32;;;;;;;19.88;12.23;;;;;;;;;;5053866;28;20050;-65
2023/08/27 03:41:58;;;;;;;19.08;12.80;;;;;;;;;;5071780;28;20527;-65
2023/08/27 03:44:24;;;;;;;20.25;12.65;;;;;;;;;;5053879;28;20056;-66
2023/08/27 03:46:50;;;;;;;18.98;12.93;;;;;;;;;;5071916;28;20138;-63
2023/08/27 03:49:16;;;;;;;21.02;12.82;;;;;;;;;;5071847;28;20440;-65
2023/08/27 03:51:42;;;;;;;20.42;12.95;;;;;;;;;;5053801;28;20139;-65
2023/08/27 03:54:08;;;;;;;19.65;13.02;;;;;;;;;;5053430;28;20404;-65
2023/08/27 03:56:34;;;;;;;19.33;12.38;;;;;;;;;;5071600;28;20062;-65
2023/08/27 03:59:00;;;;;;;21.85;13.88;;;;;;;;;;5053878;28;20036;-64
2023/08/27 04:01:26;;;;;;;20.52;13.43;;;;;;;;;;5071644;28;20056;-64
2023/08/27 04:03:54;;;;;;;18.48;12.90;;;;;;;;;;5053528;28;20017;-64
2023/08/27 04:06:21;;;;;;;20.20;13.10;;;;;;;;;;5071653;28;20036;-65
2023/08/27 04:08:47;;;;;;;19.17;12.90;;;;;;;;;;5053634;28;20032;-65
2023/08/27 04:11:13;;;;;;;21.45;13.30;;;;;;;;;;5071198;28;20038;-64
2023/08/27 04:13:39;;;;;;;20.98;13.02;;;;;;;;;;5071193;28;20028;-65
2023/08/27 04:16:07;;;;;;;20.58;13.32;;;;;;;;;;5052888;28;20025;-64
2023/08/27 04:18:33;;;;;;;20.33;14.63;;;;;;;;;;5053435;28;20371;-65
2023/08/27 04:20:59;;;;;;;20.77;13.57;;;;;;;;;;5071223;28;20020;-65
2023/08/27 04:23:25;;;;;;;21.10;13.55;;;;;;;;;;5071296;28;20536;-65
2023/08/27 04:25:52;;;;;;;19.77;13.30;;;;;;;;;;5070810;28;20476;-65
2023/08/27 04:28:18;;;;;;;20.60;13.13;;;;;;;;;;5053143;28;20047;-64
2023/08/27 04:30:49;;;;;;;19.13;12.80;;;;;;;;;;5070769;28;20039;-64
2023/08/27 04:33:16;;;;;;;21.00;12.85;;;;;;;;;;5070823;28;20504;-65
2023/08/27 04:35:44;;;;;;;20.42;12.88;;;;;;;;;;5070682;28;20516;-64
2023/08/27 04:38:10;;;;;;;19.80;13.07;;;;;;;;;;5052035;28;20373;-65
2023/08/27 04:40:36;;;;;;;21.13;12.50;;;;;;;;;;5052851;28;20036;-64
2023/08/27 04:43:02;;;;;;;22.77;13.18;;;;;;;;;;5071122;28;20028;-64
2023/08/27 04:45:28;;;;;;;22.98;13.20;;;;;;;;;;5070583;28;20025;-64
2023/08/27 04:47:54;;;;;;;20.70;13.57;;;;;;;;;;5070904;28;20028;-64
2023/08/27 04:50:21;;;;;;;20.40;13.27;;;;;;;;;;5070961;28;20106;-65
2023/08/27 04:52:47;;;;;;;22.63;13.23;;;;;;;;;;5070528;28;20458;-65
2023/08/27 04:55:13;;;;;;;19.58;13.48;;;;;;;;;;5052424;28;20028;-65
2023/08/27 04:57:39;;;;;;;19.30;12.88;;;;;;;;;;5070454;28;20429;-63
2023/08/27 05:00:07;;;;;;;18.88;12.40;;;;;;;;;;5070216;28;20024;-65
2023/08/27 05:02:33;;;;;;;19.20;12.23;;;;;;;;;;5052669;28;20435;-65
2023/08/27 05:04:59;;;;;;;20.75;12.70;;;;;;;;;;5070116;28;20419;-65
2023/08/27 05:07:25;;;;;;;18.30;12.13;;;;;;;;;;5052578;28;20025;-64
2023/08/27 05:09:51;;;;;;;21.50;12.63;;;;;;;;;;5070494;28;20090;-65
2023/08/27 05:12:17;;;;;;;19.02;12.40;;;;;;;;;;5070697;28;20035;-68
2023/08/27 05:14:43;;;;;;;21.58;14.02;;;;;;;;;;5052121;28;20025;-64
2023/08/27 05:17:09;;;;;;;19.90;12.50;;;;;;;;;;5070685;28;20471;-65
2023/08/27 05:19:35;;;;;;;20.10;12.90;;;;;;;;;;5052167;28;20028;-65
2023/08/27 05:22:02;;;;;;;19.85;13.15;;;;;;;;;;5051937;28;20020;-65
2023/08/27 05:24:28;;;;;;;19.00;13.13;;;;;;;;;;5051920;28;20028;-63
2023/08/27 05:26:54;;;;;;;21.95;13.45;;;;;;;;;;5052254;28;20024;-65
2023/08/27 05:29:20;;;;;;;20.35;13.30;;;;;;;;;;5052181;28;20017;-65
2023/08/27 05:31:46;;;;;;;20.60;13.50;;;;;;;;;;5069811;28;20027;-65
2023/08/27 05:34:12;;;;;;;21.23;13.43;;;;;;;;;;5069962;28;20017;-65
2023/08/27 05:36:38;;;;;;;21.65;12.23;;;;;;;;;;5070059;28;20082;-64
2023/08/27 05:39:05;;;;;;;20.23;12.65;;;;;;;;;;5070322;28;20024;-65
2023/08/27 05:41:31;;;;;;;18.98;12.45;;;;;;;;;;5070223;23;20089;-57
2023/08/27 05:43:57;;;;;;;21.60;12.88;;;;;;;;;;5090672;28;20059;-56
2023/08/27 05:46:23;;;;;;;21.70;13.48;;;;;;;;;;5091030;28;20031;-54
2023/08/27 05:48:49;;;;;;;19.45;12.25;;;;;;;;;;5091264;28;20066;-58
2023/08/27 05:51:15;;;;;;;20.30;12.30;;;;;;;;;;5095261;28;20024;-57
2023/08/27 05:53:42;;;;;;;18.88;11.77;;;;;;;;;;5095444;28;20491;-55
2023/08/27 05:56:08;;;;;;;19.50;11.00;;;;;;;;;;5094730;28;20540;-56
2023/08/27 05:58:34;;;;;;;18.20;11.25;;;;;;;;;;5095387;28;20095;-57
2023/08/27 06:01:02;;;;;;;20.02;11.63;;;;;;;;;;5094871;28;20024;-58
2023/08/27 06:03:28;;;;;;;18.77;10.57;;;;;;;;;;5095146;28;20016;-56
2023/08/27 06:05:54;;;;;;;18.30;10.88;;;;;;;;;;5094760;28;20032;-57
2023/08/27 06:08:20;;;;;;;18.85;12.02;;;;;;;;;;5076645;28;20027;-57
2023/08/27 06:10:46;;;;;;;18.08;11.85;;;;;;;;;;5095154;28;20395;-56
2023/08/27 06:13:12;;;;;;;19.58;11.18;;;;;;;;;;5095057;28;20365;-55
2023/08/27 06:15:38;;;;;;;18.10;11.52;;;;;;;;;;5094349;28;20028;-55
2023/08/27 06:18:07;;;;;;;17.10;10.38;;;;;;;;;;5094576;28;20030;-58
2023/08/27 06:20:33;;;;;;;16.70;10.43;;;;;;;;;;5094399;28;20024;-58
2023/08/27 06:23:00;;;;;;;16.90;9.93;;;;;;;;;;5094510;28;20015;-56
2023/08/27 06:25:26;;;;;;;18.75;10.05;;;;;;;;;;5094347;28;20028;-57
2023/08/27 06:27:54;;;;;;;17.73;10.63;;;;;;;;;;5094529;28;20062;-57
2023/08/27 06:30:20;;;;;;;17.20;10.07;;;;;;;;;;5076326;28;20032;-55
2023/08/27 06:32:46;;;;;;;17.10;10.60;;;;;;;;;;5076299;28;20063;-56
2023/08/27 06:35:15;;;;;;;17.75;11.32;;;;;;;;;;5094287;28;20063;-55
2023/08/27 06:37:41;;;;;;;19.45;10.95;;;;;;;;;;5076275;28;20016;-55
2023/08/27 06:40:07;;;;;;;18.35;11.32;;;;;;;;;;5076336;28;20081;-55
2023/08/27 06:42:33;;;;;;;19.70;12.05;;;;;;;;;;5075816;28;20032;-53
2023/08/27 06:45:00;;;;;;;17.63;11.50;;;;;;;;;;5075815;28;20024;-55
2023/08/27 06:47:26;;;;;;;18.63;11.25;;;;;;;;;;5094200;28;20036;-57
2023/08/27 06:49:52;;;;;;;19.00;11.25;;;;;;;;;;5094096;28;20162;-56
2023/08/27 06:52:18;;;;;;;24.67;11.65;;;;;;;;;;5094013;28;20381;-55
2023/08/27 06:54:44;;;;;;;19.02;11.32;;;;;;;;;;5093836;28;20053;-56
2023/08/27 06:57:10;;;;;;;19.00;11.60;;;;;;;;;;5075969;28;20103;-57
2023/08/27 06:59:36;;;;;;;20.85;12.05;;;;;;;;;;5094085;28;20105;-57
2023/08/27 07:02:03;;;;;;;20.70;11.85;;;;;;;;;;5074668;28;20025;-56
2023/08/27 07:04:29;;;;;;;19.95;11.93;;;;;;;;;;5093478;28;20023;-55
2023/08/27 07:06:55;;;;;;;18.77;12.05;;;;;;;;;;5093356;28;20032;-54
2023/08/27 07:09:25;;;;;;;18.95;11.98;;;;;;;;;;5093811;28;20020;-57
2023/08/27 07:11:51;;;;;;;20.33;10.95;;;;;;;;;;5093746;28;20016;-56
2023/08/27 07:14:17;;;;;;;18.30;12.02;;;;;;;;;;5093263;28;20028;-54
2023/08/27 07:16:43;;;;;;;16.95;10.60;;;;;;;;;;5093551;28;20028;-56
2023/08/27 07:19:09;;;;;;;18.42;10.55;;;;;;;;;;5093503;28;20016;-57
2023/08/27 07:21:35;;;;;;;18.95;11.05;;;;;;;;;;5093276;28;20407;-55
2023/08/27 07:24:01;;;;;;;17.48;10.40;;;;;;;;;;5093192;28;20036;-53
2023/08/27 07:26:27;;;;;;;18.23;10.43;;;;;;;;;;5094079;28;20077;-62
2023/08/27 07:28:53;;;;;;;18.88;10.82;;;;;;;;;;5075542;28;20066;-62
2023/08/27 07:31:19;;;;;;;18.90;11.00;;;;;;;;;;5085969;28;20073;-62
2023/08/27 07:33:45;;;;;;;18.98;10.55;;;;;;;;;;5087565;28;20039;-62
2023/08/27 07:36:11;;;;;;;16.95;10.00;;;;;;;;;;5056682;28;20048;-63
2023/08/27 07:38:41;;;;;;;17.73;9.95;;;;;;;;;;5075615;28;20111;-63
2023/08/27 07:41:07;;;;;;;17.38;9.18;;;;;;;;;;5092838;28;20062;-61
2023/08/27 07:43:33;;;;;;;17.92;11.15;;;;;;;;;;5092968;28;20099;-59
2023/08/27 07:45:59;;;;;;;18.77;10.05;;;;;;;;;;5092613;28;20070;-62
2023/08/27 07:48:27;;;;;;;17.40;10.57;;;;;;;;;;5074785;28;20031;-63
2023/08/27 07:50:53;;;;;;;17.23;9.57;;;;;;;;;;5092719;28;20027;-64
2023/08/27 07:53:19;;;;;;;16.55;10.30;;;;;;;;;;5092989;28;20062;-61
2023/08/27 07:55:45;;;;;;;19.35;11.02;;;;;;;;;;5074304;28;20028;-60
2023/08/27 07:58:11;;;;;;;16.05;10.65;;;;;;;;;;5074571;28;20370;-60
2023/08/27 08:00:37;;;;;;;17.30;11.05;;;;;;;;;;5092711;28;20043;-61
2023/08/27 08:03:03;;;;;;;17.08;11.55;;;;;;;;;;5092918;28;20020;-60
2023/08/27 08:05:29;;;;;;;16.70;11.48;;;;;;;;;;5079022;28;20486;-61
2023/08/27 08:07:55;;;;;;;16.27;10.85;;;;;;;;;;5054324;28;20047;-63
2023/08/27 08:10:21;;;;;;;17.95;12.68;;;;;;;;;;5072723;28;20024;-61
2023/08/27 08:12:47;;;;;;;17.45;12.02;;;;;;;;;;5072111;28;20028;-61
2023/08/27 08:15:14;;;;;;;18.35;12.00;;;;;;;;;;5072198;28;20407;-61
2023/08/27 08:17:40;;;;;;;18.00;10.98;;;;;;;;;;5076671;28;20024;-61
2023/08/27 08:20:07;;;;;;;16.00;10.45;;;;;;;;;;5075345;28;20044;-62
2023/08/27 08:22:33;;;;;;;17.02;10.82;;;;;;;;;;5071687;28;20038;-63
2023/08/27 08:24:59;;;;;;;16.75;11.75;;;;;;;;;;5076157;28;20024;-58
2023/08/27 08:27:25;;;;;;;16.50;11.45;;;;;;;;;;5092339;28;20078;-60
2023/08/27 08:29:51;;;;;;;17.23;11.65;;;;;;;;;;5074188;28;20031;-60
2023/08/27 08:32:17;;;;;;;18.75;12.00;;;;;;;;;;5092060;28;20168;-61
2023/08/27 08:34:43;;;;;;;17.05;12.02;;;;;;;;;;5091816;28;20107;-57
2023/08/27 08:37:09;;;;;;;18.13;12.10;;;;;;;;;;5091919;28;20172;-58
2023/08/27 08:39:36;;;;;;;16.70;11.20;;;;;;;;;;5092117;28;20047;-59
2023/08/27 08:42:10;;;;;;;18.75;11.25;;;;;;;;;;5091680;28;20403;-61
2023/08/27 08:44:36;;;;;;;16.48;11.55;;;;;;;;;;5091695;28;20089;-56
2023/08/27 08:47:04;;;;;;;18.00;11.60;;;;;;;;;;5073440;28;20524;-58
2023/08/27 08:49:31;;;;;;;15.60;10.83;;;;;;;;;;5091870;28;20460;-58
2023/08/27 08:52:00;;;;;;;16.30;10.40;;;;;;;;;;5091640;28;20282;-57
2023/08/27 08:54:28;;;;;;;16.90;10.77;;;;;;;;;;5082693;28;20052;-54
2023/08/27 08:56:55;;;;;;;16.80;10.30;;;;;;;;;;5080668;28;20049;-59
2023/08/27 08:59:22;;;;;;;15.80;10.10;;;;;;;;;;5091168;28;20323;-57
2023/08/27 09:01:48;;;;;;;15.13;9.52;;;;;;;;;;5091474;28;20494;-57
2023/08/27 09:04:15;;;;;;;16.25;9.18;;;;;;;;;;5091052;28;20499;-58
2023/08/27 09:06:42;;;;;;;15.23;8.68;;;;;;;;;;5074769;28;20032;-56
2023/08/27 09:09:09;;;;;;;14.60;8.43;;;;;;;;;;5070996;28;20035;-57
2023/08/27 09:11:37;;;;;;;15.63;8.60;;;;;;;;;;5071046;28;20082;-59
2023/08/27 09:14:04;;;;;;;15.35;8.13;;;;;;;;;;5053085;28;20054;-60
2023/08/27 09:16:30;;;;;;;15.45;8.13;;;;;;;;;;5052429;28;20467;-59
2023/08/27 09:18:56;;;;;;;15.30;8.07;;;;;;;;;;5071349;28;20024;-62
2023/08/27 09:21:22;;;;;;;15.40;8.40;;;;;;;;;;5052947;28;20024;-60
2023/08/27 09:23:49;;;;;;;15.82;8.40;;;;;;;;;;5070316;28;20487;-63
2023/08/27 09:26:15;;;;;;;15.15;8.38;;;;;;;;;;5052805;28;20098;-60
2023/08/27 09:28:41;;;;;;;15.90;9.02;;;;;;;;;;5071233;28;20452;-62
2023/08/27 09:31:10;;;;;;;15.95;9.20;;;;;;;;;;5070663;28;20029;-62
2023/08/27 09:33:37;;;;;;;17.20;8.82;;;;;;;;;;5071039;28;20481;-60
2023/08/27 09:36:03;;;;;;;16.05;9.20;;;;;;;;;;5070769;28;20421;-56
2023/08/27 09:38:29;;;;;;;15.23;8.70;;;;;;;;;;5070992;28;20029;-59
2023/08/27 09:40:55;;;;;;;15.95;9.27;;;;;;;;;;5070554;28;20334;-55
2023/08/27 09:43:26;;;;;;;17.35;9.70;;;;;;;;;;5070900;28;20028;-57
2023/08/27 09:45:52;;;;;;;16.98;9.55;;;;;;;;;;5069098;28;20082;-60
2023/08/27 09:48:26;;;;;;;15.55;9.02;;;;;;;;;;5070809;28;20028;-62
2023/08/27 09:51:04;;;;;;;17.92;9.65;;;;;;;;;;5070773;28;20032;-62
2023/08/27 09:53:30;;;;;;;17.60;9.63;;;;;;;;;;5069470;28;20031;-65
2023/08/27 09:55:56;;;;;;;16.45;9.57;;;;;;;;;;5070266;28;20067;-63
2023/08/27 09:58:26;;;;;;;16.88;10.18;;;;;;;;;;5070959;28;20118;-62
2023/08/27 10:00:57;;;;;;;18.15;11.02;;;;;;;;;;5070558;28;20188;-61
2023/08/27 10:03:23;;;;;;;17.92;10.70;;;;;;;;;;5070805;28;20024;-61
2023/08/27 10:05:50;;;;;;;17.95;10.88;;;;;;;;;;5070275;28;20024;-61
2023/08/27 10:08:16;;;;;;;19.23;11.00;;;;;;;;;;5069031;28;20029;-64
2023/08/27 10:10:42;;;;;;;17.52;11.48;;;;;;;;;;5070737;28;20052;-63
2023/08/27 10:13:09;;;;;;;19.30;11.85;;;;;;;;;;5070827;28;20457;-63
2023/08/27 10:15:36;;;;;;;18.85;11.75;;;;;;;;;;5069625;28;20024;-62
2023/08/27 10:18:04;;;;;;;16.75;11.32;;;;;;;;;;5070566;28;20073;-61
2023/08/27 10:20:31;;;;;;;18.13;11.10;;;;;;;;;;5070250;28;20016;-60
2023/08/27 10:22:57;;;;;;;17.75;11.25;;;;;;;;;;5070333;28;20103;-64
2023/08/27 10:25:24;;;;;;;17.67;11.45;;;;;;;;;;5068619;28;20031;-61
2023/08/27 10:27:51;;;;;;;20.40;11.98;;;;;;;;;;5068986;28;20025;-62
2023/08/27 10:30:18;;;;;;;19.90;12.23;;;;;;;;;;5070569;28;20035;-63
2023/08/27 10:32:44;;;;;;;17.38;11.60;;;;;;;;;;5069111;28;20044;-62
2023/08/27 10:35:11;;;;;;;17.67;12.45;;;;;;;;;;5070629;28;20137;-60
2023/08/27 10:37:39;;;;;;;19.88;12.52;;;;;;;;;;5073793;28;20580;-61
2023/08/27 10:40:08;;;;;;;18.77;12.65;;;;;;;;;;5073977;28;20078;-64
2023/08/27 10:42:36;;;;;;;18.17;11.55;;;;;;;;;;5072018;28;20400;-62
2023/08/27 10:45:11;;;;;;;17.77;12.50;;;;;;;;;;5073512;28;20025;-60
2023/08/27 10:47:38;;;;;;;17.83;12.05;;;;;;;;;;5073707;28;20037;-61
2023/08/27 10:50:05;;;;;;;18.42;12.07;;;;;;;;;;5073638;28;20451;-60
2023/08/27 10:52:47;;;;;;;18.92;12.20;;;;;;;;;;5066025;28;20025;-61
2023/08/27 10:55:13;;;;;;;17.63;12.02;;;;;;;;;;5087565;28;20082;-61
2023/08/27 10:57:39;;;;;;;18.90;12.05;;;;;;;;;;5093513;28;20036;-60
2023/08/27 11:00:12;;;;;;;17.08;11.32;;;;;;;;;;5093503;28;20085;-61
2023/08/27 11:02:57;;;;;;;17.92;11.48;;;;;;;;;;5093020;28;20024;-61
2023/08/27 11:05:30;;;;;;;17.67;11.38;;;;;;;;;;5090999;28;20034;-60
2023/08/27 11:07:59;;;;;;;17.50;11.82;;;;;;;;;;5089243;28;20024;-62
2023/08/27 11:10:31;;;;;;;16.75;11.75;;;;;;;;;;5093467;28;20027;-61
2023/08/27 11:12:58;;;;;;;16.45;11.05;;;;;;;;;;4735594;28;9999840;-58
2023/08/27 11:15:28;;;;;;;17.50;12.35;;;;;;;;;;5059109;28;20037;-61
2023/08/27 11:17:54;;;;;;;16.85;12.18;;;;;;;;;;5086354;28;20031;-60
2023/08/27 11:20:23;;;;;;;17.05;12.40;;;;;;;;;;5089976;28;20028;-62
2023/08/27 11:22:56;;;;;;;17.95;12.82;;;;;;;;;;5070209;28;20027;-60
2023/08/27 11:25:22;;;;;;;19.60;12.82;;;;;;;;;;5069368;28;20063;-59
2023/08/27 11:27:49;;;;;;;17.02;12.82;;;;;;;;;;5070399;28;20037;-61
2023/08/27 11:30:15;;;;;;;17.15;12.13;;;;;;;;;;5084874;28;20020;-60
2023/08/27 11:32:43;;;;;;;17.30;12.20;;;;;;;;;;5075828;28;20078;-63
2023/08/27 11:35:11;;;;;;;18.60;12.75;;;;;;;;;;4735930;28;9999750;-58
2023/08/27 11:37:38;;;;;;;18.42;12.68;;;;;;;;;;5071838;28;20089;-59
2023/08/27 11:40:15;;;;;;;17.38;13.48;;;;;;;;;;5089956;28;20738;-61
2023/08/27 11:42:50;;;;;;;18.55;14.40;;;;;;;;;;5090591;28;20381;-59
2023/08/27 11:45:16;;;;;;;19.17;14.73;;;;;;;;;;5089656;28;20027;-57
2023/08/27 11:47:45;;;;;;;18.63;14.02;;;;;;;;;;5089117;28;20174;-57
2023/08/27 11:50:13;;;;;;;17.95;14.45;;;;;;;;;;5090304;28;20039;-57
2023/08/27 11:52:39;;;;;;;18.08;13.27;;;;;;;;;;5089975;28;20232;-58
2023/08/27 11:55:06;;;;;;;18.42;14.32;;;;;;;;;;5071247;28;20043;-59
2023/08/27 11:57:34;;;;;;;19.00;14.15;;;;;;;;;;5076417;28;20434;-58
2023/08/27 12:00:07;;;;;;;20.05;14.40;;;;;;;;;;5081407;28;20019;-62
2023/08/27 12:02:33;;;;;;;19.73;14.55;;;;;;;;;;5090028;28;20527;-58
2023/08/27 12:04:59;;;;;;;20.13;14.98;;;;;;;;;;5089061;28;20531;-59
2023/08/27 12:07:27;;;;;;;19.88;14.90;;;;;;;;;;5071461;28;20036;-59
2023/08/27 12:09:53;;;;;;;18.92;14.25;;;;;;;;;;5089377;28;20024;-58
2023/08/27 12:12:19;;;;;;;19.77;13.55;;;;;;;;;;5090037;28;20128;-59
2023/08/27 12:14:47;;;;;;;18.45;12.75;;;;;;;;;;5086144;28;20032;-57
2023/08/27 12:17:14;;;;;;;19.55;13.77;;;;;;;;;;5071819;28;20544;-58
2023/08/27 12:19:43;;;;;;;17.52;12.98;;;;;;;;;;5090000;28;20519;-58
2023/08/27 12:22:14;;;;;;;19.38;12.85;;;;;;;;;;5071247;28;20052;-59
2023/08/27 12:24:41;;;;;;;16.73;12.57;;;;;;;;;;5089189;28;20027;-59
2023/08/27 12:27:07;;;;;;;18.85;13.23;;;;;;;;;;5089213;28;20030;-59
2023/08/27 12:29:39;;;;;;;17.88;13.57;;;;;;;;;;5089006;28;20035;-59
2023/08/27 12:32:14;;;;;;;17.98;12.77;;;;;;;;;;5088383;28;20039;-57
2023/08/27 12:34:43;;;;;;;16.80;12.43;;;;;;;;;;5089321;28;20020;-58
2023/08/27 12:37:10;;;;;;;17.70;11.88;;;;;;;;;;4737540;28;9999570;-56
2023/08/27 12:39:37;;;;;;;16.95;12.30;;;;;;;;;;5090140;28;20598;-58
2023/08/27 12:42:03;;;;;;;16.23;12.07;;;;;;;;;;5089678;28;20036;-58
2023/08/27 12:44:29;;;;;;;16.93;12.27;;;;;;;;;;4737788;28;9999631;-57
2023/08/27 12:46:55;;;;;;;16.92;12.38;;;;;;;;;;5089983;28;20032;-59
2023/08/27 12:49:21;;;;;;;17.95;12.00;;;;;;;;;;5090339;28;20456;-59
2023/08/27 12:51:48;;;;;;;16.60;11.85;;;;;;;;;;5091360;28;20024;-59
2023/08/27 12:54:15;;;;;;;16.83;12.15;;;;;;;;;;5091150;28;20059;-57
2023/08/27 12:56:41;;;;;;;17.23;12.30;;;;;;;;;;5091449;28;20362;-56
2023/08/27 12:59:07;;;;;;;16.33;11.85;;;;;;;;;;5090497;28;20028;-58
2023/08/27 13:01:34;;;;;;;17.55;12.48;;;;;;;;;;5091167;28;20103;-58
2023/08/27 13:04:00;;;;;;;19.05;12.38;;;;;;;;;;5090974;28;20034;-57
2023/08/27 13:06:30;;;;;;;16.30;12.32;;;;;;;;;;4872357;28;10001313;-58
2023/08/27 13:08:56;;;;;;;16.25;11.55;;;;;;;;;;5085608;28;20605;-59
2023/08/27 13:11:22;;;;;;;17.10;11.73;;;;;;;;;;5070457;28;20672;-59
2023/08/27 13:13:48;;;;;;;15.98;11.60;;;;;;;;;;5054804;28;20057;-57
2023/08/27 13:16:14;;;;;;;15.77;11.70;;;;;;;;;;5087708;28;20035;-59
2023/08/27 13:18:41;;;;;;;18.73;11.70;;;;;;;;;;5087957;28;20028;-59
2023/08/27 13:21:07;;;;;;;17.40;11.63;;;;;;;;;;5087685;28;20092;-60
2023/08/27 13:23:33;;;;;;;17.25;11.30;;;;;;;;;;5087733;28;20401;-60
2023/08/27 13:25:59;;;;;;;16.65;11.50;;;;;;;;;;5087631;28;20028;-58
2023/08/27 13:28:26;;;;;;;16.40;11.20;;;;;;;;;;5087930;28;20035;-59
2023/08/27 13:30:52;;;;;;;16.05;10.95;;;;;;;;;;5087835;28;20028;-59
2023/08/27 13:33:18;;;;;;;15.45;10.35;;;;;;;;;;5084739;28;20101;-58
2023/08/27 13:35:44;;;;;;;16.52;10.82;;;;;;;;;;5075641;28;20380;-59
2023/08/27 13:38:10;;;;;;;16.27;10.90;;;;;;;;;;5081960;28;20020;-58
2023/08/27 13:40:36;;;;;;;16.55;11.25;;;;;;;;;;5088217;28;20097;-58
2023/08/27 13:43:02;;;;;;;16.13;11.27;;;;;;;;;;5088770;28;20565;-58
2023/08/27 13:45:28;;;;;;;16.88;11.45;;;;;;;;;;5088478;28;20093;-57
2023/08/27 13:47:54;;;;;;;17.23;11.98;;;;;;;;;;5088060;28;20028;-58
2023/08/27 13:50:20;;;;;;;16.45;11.07;;;;;;;;;;5088409;28;20038;-57
2023/08/27 13:52:48;;;;;;;15.73;10.75;;;;;;;;;;5087816;28;20028;-57
2023/08/27 13:55:14;;;;;;;14.50;10.40;;;;;;;;;;5087532;28;20023;-58
2023/08/27 13:57:40;;;;;;;16.77;10.40;;;;;;;;;;5087780;28;20035;-59
2023/08/27 14:00:07;;;;;;;15.63;9.40;;;;;;;;;;5087669;28;20024;-58
2023/08/27 14:02:33;;;;;;;21.63;19.60;;;;;;;;;;5087951;28;20047;-56
2023/08/27 14:04:59;;;;;;;34.50;31.35;;;;;;;;;;5087466;28;20061;-57
2023/08/27 14:07:25;;;;;;;33.45;30.65;;;;;;;;;;5087442;28;20069;-58
2023/08/27 14:09:51;;;;;;;33.20;30.60;;;;;;;;;;5087743;28;20031;-59
2023/08/27 14:12:17;;;;;;;33.13;30.55;;;;;;;;;;5091810;28;20024;-54
2023/08/27 14:14:43;;;;;;;30.05;27.70;;;;;;;;;;5072990;28;20047;-58
2023/08/27 14:17:12;;;;;;;30.35;27.95;;;;;;;;;;5091714;28;20127;-58